createdAt,value
2023-03-26T00:01:08.237Z,66.23
2023-03-26T00:03:45.750Z,66.37
2023-03-26T00:06:19.796Z,66.27
2023-03-26T00:08:54.258Z,66.26
2023-03-26T00:11:30.812Z,66.08
2023-03-26T00:14:04.474Z,66.28
2023-03-26T00:16:37.620Z,66.40
2023-03-26T00:19:11.218Z,66.44
2023-03-26T00:21:44.457Z,66.24
2023-03-26T00:24:18.031Z,66.18
2023-03-26T00:26:53.981Z,66.16
2023-03-26T00:29:28.456Z,66.42
2023-03-26T00:32:02.263Z,66.45
2023-03-26T00:34:35.747Z,67.26
2023-03-26T00:37:09.337Z,67.24
2023-03-26T00:39:43.281Z,67.08
2023-03-26T00:42:16.305Z,67.10
2023-03-26T00:44:51.957Z,67.22
2023-03-26T00:47:25.536Z,67.37
2023-03-26T00:49:58.826Z,67.41
2023-03-26T00:52:32.267Z,67.56
2023-03-26T00:55:05.377Z,67.66
2023-03-26T00:57:38.945Z,67.45
2023-03-26T01:00:17.079Z,67.64
2023-03-26T01:02:50.313Z,67.55
2023-03-26T01:05:37.327Z,67.71
2023-03-26T01:08:34.886Z,67.33
2023-03-26T01:11:16.727Z,67.48
2023-03-26T01:14:03.404Z,67.01
2023-03-26T01:16:58.457Z,66.93
2023-03-26T01:20:02.115Z,66.76
2023-03-26T01:22:38.840Z,66.68
2023-03-26T01:25:12.666Z,66.67
2023-03-26T01:27:56.569Z,66.12
2023-03-26T01:30:52.774Z,66.31
2023-03-26T01:33:54.398Z,67.60
2023-03-26T01:36:43.735Z,66.98
2023-03-26T01:39:50.102Z,66.82
2023-03-26T01:42:30.812Z,66.49
2023-03-26T01:45:22.236Z,66.80
2023-03-26T01:47:57.172Z,67.12
2023-03-26T01:50:32.332Z,67.54
2023-03-26T01:53:05.535Z,67.56
2023-03-26T01:56:06.341Z,67.40
2023-03-26T01:59:02.626Z,68.13
2023-03-26T02:02:12.843Z,68.50
2023-03-26T02:05:06.699Z,68.11
2023-03-26T02:08:03.170Z,67.64
2023-03-26T02:10:42.503Z,67.43
2023-03-26T02:13:15.947Z,67.81
2023-03-26T02:16:06.685Z,68.70
2023-03-26T02:18:40.274Z,70.75
2023-03-26T02:21:26.899Z,69.35
2023-03-26T02:24:07.072Z,70.07
2023-03-26T02:26:41.021Z,70.26
2023-03-26T02:29:21.292Z,69.15
2023-03-26T02:31:54.699Z,68.98
2023-03-26T02:34:28.150Z,68.86
2023-03-26T02:37:01.857Z,68.79
2023-03-26T02:39:35.339Z,68.82
2023-03-26T02:42:16.551Z,68.88
2023-03-26T02:44:53.426Z,69.13
2023-03-26T02:47:26.452Z,69.23
2023-03-26T02:49:59.130Z,70.00
2023-03-26T02:52:49.607Z,71.93
2023-03-26T02:55:22.868Z,70.33
2023-03-26T02:57:58.119Z,69.99
2023-03-26T03:00:40.635Z,69.64
2023-03-26T03:03:38.462Z,69.95
2023-03-26T03:06:38.829Z,69.73
2023-03-26T03:09:12.703Z,69.65
2023-03-26T03:11:49.004Z,69.50
2023-03-26T03:14:22.394Z,69.44
2023-03-26T03:16:55.414Z,70.28
2023-03-26T03:19:28.841Z,69.87
2023-03-26T03:22:02.134Z,69.88
2023-03-26T03:24:36.357Z,69.95
2023-03-26T03:27:09.525Z,70.04
2023-03-26T03:29:54.174Z,69.58
2023-03-26T03:32:58.902Z,69.47
2023-03-26T03:35:34.071Z,70.02
2023-03-26T03:38:07.617Z,69.56
2023-03-26T03:40:48.861Z,69.42
2023-03-26T03:43:22.419Z,69.55
2023-03-26T03:46:07.042Z,69.65
2023-03-26T03:48:50.646Z,69.41
2023-03-26T03:51:28.489Z,69.62
2023-03-26T03:54:10.499Z,69.72
2023-03-26T03:56:52.777Z,69.99
2023-03-26T03:59:53.306Z,70.14
2023-03-26T04:02:35.487Z,70.17
2023-03-26T04:05:12.173Z,70.07
2023-03-26T04:07:50.799Z,69.99
2023-03-26T04:10:29.958Z,69.83
2023-03-26T04:13:09.653Z,69.43
2023-03-26T04:16:07.815Z,69.72
2023-03-26T04:18:41.312Z,69.70
2023-03-26T04:21:19.943Z,69.74
2023-03-26T04:23:54.779Z,69.81
2023-03-26T04:26:52.845Z,69.74
2023-03-26T04:29:39.070Z,69.59
2023-03-26T04:32:26.960Z,69.64
2023-03-26T04:35:04.633Z,69.50
2023-03-26T04:37:40.507Z,69.82
2023-03-26T04:40:22.663Z,69.69
2023-03-26T04:43:19.003Z,69.29
2023-03-26T04:46:24.664Z,69.22
2023-03-26T04:49:07.692Z,69.05
2023-03-26T04:51:42.468Z,68.93
2023-03-26T04:54:32.221Z,68.64
2023-03-26T04:57:20.993Z,68.18
2023-03-26T05:00:16.236Z,69.30
2023-03-26T05:02:51.075Z,68.99
2023-03-26T05:05:25.084Z,69.68
2023-03-26T05:07:59.077Z,69.41
2023-03-26T05:10:32.428Z,69.05
2023-03-26T05:13:19.866Z,69.18
2023-03-26T05:15:56.197Z,69.19
2023-03-26T05:18:41.237Z,69.12
2023-03-26T05:21:14.889Z,68.58
2023-03-26T05:23:48.173Z,68.53
2023-03-26T05:26:26.549Z,68.17
2023-03-26T05:28:59.772Z,68.31
2023-03-26T05:31:40.214Z,68.27
2023-03-26T05:34:13.775Z,68.51
2023-03-26T05:36:47.448Z,69.80
2023-03-26T05:39:44.314Z,68.69
2023-03-26T05:42:42.606Z,68.48
2023-03-26T05:45:43.458Z,67.86
2023-03-26T05:48:25.258Z,67.76
2023-03-26T05:51:00.467Z,67.14
2023-03-26T05:53:36.503Z,66.94
2023-03-26T05:56:15.832Z,67.15
2023-03-26T05:59:07.261Z,67.16
2023-03-26T06:02:02.551Z,67.02
2023-03-26T06:05:10.418Z,67.01
2023-03-26T06:07:59.871Z,66.99
2023-03-26T06:10:41.510Z,66.65
2023-03-26T06:13:14.095Z,66.57
2023-03-26T06:15:47.232Z,66.44
2023-03-26T06:18:28.539Z,66.87
2023-03-26T06:21:24.008Z,66.80
2023-03-26T06:24:17.017Z,66.52
2023-03-26T06:27:06.978Z,66.03
2023-03-26T06:30:11.536Z,65.84
2023-03-26T06:33:01.237Z,65.96
2023-03-26T06:35:40.867Z,66.54
2023-03-26T06:38:14.162Z,66.34
2023-03-26T06:40:47.384Z,66.77
2023-03-26T06:43:44.567Z,66.44
2023-03-26T06:46:42.259Z,66.64
2023-03-26T06:49:49.628Z,66.35
2023-03-26T06:52:44.865Z,65.94
2023-03-26T06:55:48.761Z,65.58
2023-03-26T06:58:43.300Z,65.53
2023-03-26T07:01:35.833Z,65.65
2023-03-26T07:04:29.105Z,65.57
2023-03-26T07:07:25.245Z,65.53
2023-03-26T07:10:38.449Z,66.92
2023-03-26T07:13:42.432Z,70.29
2023-03-26T07:16:35.986Z,74.10
2023-03-26T07:19:29.086Z,74.19
2023-03-26T07:22:03.481Z,72.20
2023-03-26T07:25:05.192Z,72.54
2023-03-26T07:28:31.199Z,71.54
2023-03-26T07:31:43.548Z,72.02
2023-03-26T07:35:07.780Z,75.79
2023-03-26T07:38:12.689Z,73.15
2023-03-26T07:41:38.123Z,72.51
2023-03-26T07:44:54.523Z,70.70
2023-03-26T07:47:57.685Z,69.80
2023-03-26T07:50:54.032Z,69.44
2023-03-26T07:53:40.412Z,68.69
2023-03-26T07:56:42.657Z,66.84
2023-03-26T07:59:59.901Z,66.97
2023-03-26T08:03:12.606Z,66.90
2023-03-26T08:06:28.793Z,64.93
2023-03-26T08:09:32.825Z,64.77
2023-03-26T08:12:47.519Z,63.34
2023-03-26T08:15:44.685Z,63.27
2023-03-26T08:18:49.060Z,62.27
2023-03-26T08:21:40.781Z,62.15
2023-03-26T08:24:38.163Z,62.39
2023-03-26T08:27:25.517Z,61.93
2023-03-26T08:30:22.789Z,60.97
2023-03-26T08:33:07.160Z,60.15
2023-03-26T08:35:42.957Z,60.45
2023-03-26T08:38:18.186Z,59.99
2023-03-26T08:40:59.456Z,59.93
2023-03-26T08:43:40.891Z,59.58
2023-03-26T08:46:47.214Z,59.16
2023-03-26T08:49:32.375Z,59.27
2023-03-26T08:52:39.288Z,59.00
2023-03-26T08:55:27.296Z,58.96
2023-03-26T08:58:09.532Z,58.94
2023-03-26T09:01:09.957Z,58.72
2023-03-26T09:04:10.078Z,58.96
2023-03-26T09:07:17.819Z,58.36
2023-03-26T09:10:15.123Z,58.41
2023-03-26T09:13:18.174Z,57.38
2023-03-26T09:16:15.717Z,56.33
2023-03-26T09:19:14.759Z,56.32
2023-03-26T09:22:11.378Z,56.17
2023-03-26T09:25:14.948Z,55.14
2023-03-26T09:28:21.450Z,55.29
2023-03-26T09:31:30.146Z,54.77
2023-03-26T09:34:36.668Z,55.37
2023-03-26T09:37:56.091Z,55.86
2023-03-26T09:40:44.940Z,55.36
2023-03-26T09:44:05.394Z,54.70
2023-03-26T09:46:48.480Z,54.72
2023-03-26T09:49:41.225Z,54.96
2023-03-26T09:52:28.896Z,54.82
2023-03-26T09:55:30.119Z,54.82
2023-03-26T09:58:27.488Z,54.42
2023-03-26T10:01:48.704Z,54.45
2023-03-26T10:04:49.321Z,54.02
2023-03-26T10:07:52.736Z,53.85
2023-03-26T10:10:45.309Z,53.89
2023-03-26T10:13:29.301Z,54.26
2023-03-26T10:16:13.941Z,54.26
2023-03-26T10:19:04.859Z,53.85
2023-03-26T10:22:01.677Z,53.37
2023-03-26T10:24:42.731Z,53.01
2023-03-26T10:27:42.585Z,52.42
2023-03-26T10:30:35.305Z,52.89
2023-03-26T10:33:25.241Z,51.89
2023-03-26T10:36:18.323Z,50.51
2023-03-26T10:39:36.130Z,50.16
2023-03-26T10:42:34.542Z,50.18
2023-03-26T10:45:55.582Z,50.54
2023-03-26T10:48:30.890Z,50.13
2023-03-26T10:51:41.560Z,49.50
2023-03-26T10:54:34.065Z,48.04
2023-03-26T10:57:16.625Z,49.12
2023-03-26T10:59:50.126Z,49.47
2023-03-26T11:02:32.976Z,47.85
2023-03-26T11:05:31.507Z,48.25
2023-03-26T11:08:13.935Z,48.65
2023-03-26T11:11:01.877Z,46.31
2023-03-26T11:14:24.314Z,46.22
2023-03-26T11:17:41.908Z,47.66
2023-03-26T11:20:27.865Z,47.37
2023-03-26T11:23:39.151Z,46.75
2023-03-26T11:26:18.991Z,46.79
2023-03-26T11:29:31.782Z,46.61
2023-03-26T11:32:22.784Z,46.66
2023-03-26T11:35:39.843Z,47.04
2023-03-26T11:38:22.449Z,47.71
2023-03-26T11:40:58.379Z,47.38
2023-03-26T11:43:59.969Z,47.12
2023-03-26T11:46:41.031Z,47.70
2023-03-26T11:49:23.156Z,47.93
2023-03-26T11:51:57.056Z,48.19
2023-03-26T11:54:30.533Z,48.23
2023-03-26T11:57:15.564Z,48.18
2023-03-26T11:59:57.527Z,48.14
2023-03-26T12:02:42.187Z,48.28
2023-03-26T12:05:34.033Z,48.13
2023-03-26T12:08:21.119Z,48.08
2023-03-26T12:11:16.561Z,48.27
2023-03-26T12:13:59.978Z,48.42
2023-03-26T12:16:33.435Z,48.49
2023-03-26T12:19:22.744Z,47.93
2023-03-26T12:21:56.601Z,47.13
2023-03-26T12:24:31.530Z,46.87
2023-03-26T12:27:24.459Z,46.53
2023-03-26T12:30:14.693Z,46.24
2023-03-26T12:32:49.304Z,46.78
2023-03-26T12:35:31.710Z,46.54
2023-03-26T12:38:37.953Z,45.88
2023-03-26T12:43:40.603Z,45.91
2023-03-26T12:44:53.471Z,44.95
2023-03-26T12:48:00.765Z,45.06
2023-03-26T12:50:51.767Z,44.43
2023-03-26T12:53:54.306Z,43.47
2023-03-26T12:56:36.767Z,42.81
2023-03-26T12:59:27.213Z,43.63
2023-03-26T13:02:23.572Z,42.15
2023-03-26T13:05:12.832Z,42.35
2023-03-26T13:08:14.676Z,41.95
2023-03-26T13:11:06.101Z,43.61
2023-03-26T13:14:01.170Z,47.74
2023-03-26T13:16:42.891Z,53.23
2023-03-26T13:19:41.897Z,62.13
2023-03-26T13:22:35.452Z,70.34
2023-03-26T13:25:33.962Z,82.33
2023-03-26T13:28:26.033Z,80.91
2023-03-26T13:31:14.201Z,82.57
2023-03-26T13:34:27.328Z,83.03
2023-03-26T13:37:17.065Z,83.63
2023-03-26T13:40:20.478Z,85.28
2023-03-26T13:43:11.706Z,80.31
2023-03-26T13:46:20.642Z,75.58
2023-03-26T13:49:16.120Z,81.08
2023-03-26T13:52:02.427Z,80.77
2023-03-26T13:54:38.366Z,80.51
2023-03-26T13:57:19.415Z,80.76
2023-03-26T14:00:24.295Z,80.53
2023-03-26T14:03:11.287Z,80.29
2023-03-26T14:05:52.052Z,81.18
2023-03-26T14:08:33.340Z,81.03
2023-03-26T14:11:19.639Z,80.52
2023-03-26T14:14:15.783Z,80.50
2023-03-26T14:16:58.898Z,79.95
2023-03-26T14:19:32.700Z,78.60
2023-03-26T14:22:27.494Z,76.99
2023-03-26T14:25:45.278Z,75.57
2023-03-26T14:28:39.089Z,74.39
2023-03-26T14:31:40.183Z,76.27
2023-03-26T14:35:05.169Z,77.13
2023-03-26T14:37:45.345Z,78.01
2023-03-26T14:41:09.750Z,78.06
2023-03-26T14:43:59.244Z,78.45
2023-03-26T14:47:05.133Z,78.82
2023-03-26T14:49:56.150Z,76.82
2023-03-26T14:53:01.172Z,73.75
2023-03-26T14:56:09.909Z,72.21
2023-03-26T14:59:17.737Z,71.13
2023-03-26T15:01:50.790Z,67.18
2023-03-26T15:04:58.494Z,62.78
2023-03-26T15:07:43.223Z,60.34
2023-03-26T15:10:47.776Z,57.84
2023-03-26T15:13:26.164Z,58.98
2023-03-26T15:16:28.124Z,59.31
2023-03-26T15:19:12.956Z,57.31
2023-03-26T15:21:54.703Z,57.34
2023-03-26T15:24:44.209Z,53.75
2023-03-26T15:27:49.748Z,57.07
2023-03-26T15:30:58.606Z,58.07
2023-03-26T15:33:49.184Z,59.53
2023-03-26T15:36:57.277Z,58.62
2023-03-26T15:40:22.993Z,59.35
2023-03-26T15:43:01.765Z,58.63
2023-03-26T15:45:37.253Z,59.67
2023-03-26T15:48:16.620Z,60.45
2023-03-26T15:51:24.028Z,60.85
2023-03-26T15:54:03.106Z,61.98
2023-03-26T15:56:49.463Z,62.79
2023-03-26T15:59:59.856Z,63.24
2023-03-26T16:02:56.260Z,63.79
2023-03-26T16:05:34.765Z,64.05
2023-03-26T16:08:22.425Z,64.20
2023-03-26T16:11:09.255Z,64.47
2023-03-26T16:14:06.213Z,64.39
2023-03-26T16:16:58.462Z,64.63
2023-03-26T16:19:49.797Z,64.81
2023-03-26T16:22:42.772Z,64.95
2023-03-26T16:25:32.221Z,64.79
2023-03-26T16:28:14.120Z,65.31
2023-03-26T16:31:23.005Z,65.67
2023-03-26T16:34:27.520Z,66.05
2023-03-26T16:37:09.596Z,66.43
2023-03-26T16:39:44.785Z,66.29
2023-03-26T16:42:34.859Z,66.09
2023-03-26T16:45:32.351Z,66.44
2023-03-26T16:48:48.064Z,66.84
2023-03-26T16:51:29.539Z,67.06
2023-03-26T16:54:36.825Z,67.29
2023-03-26T16:57:33.207Z,67.27
2023-03-26T17:00:41.778Z,68.22
2023-03-26T17:03:40.714Z,68.21
2023-03-26T17:06:32.633Z,68.57
2023-03-26T17:09:38.386Z,68.63
2023-03-26T17:12:21.243Z,68.88
2023-03-26T17:15:24.491Z,68.95
2023-03-26T17:18:21.450Z,69.07
2023-03-26T17:20:56.797Z,69.17
2023-03-26T17:24:00.665Z,68.85
2023-03-26T17:26:56.345Z,68.83
2023-03-26T17:30:31.662Z,68.76
2023-03-26T17:33:08.148Z,69.05
2023-03-26T17:35:49.917Z,69.09
2023-03-26T17:38:30.929Z,69.21
2023-03-26T17:41:04.888Z,69.22
2023-03-26T17:43:52.749Z,69.04
2023-03-26T17:46:43.723Z,69.66
2023-03-26T17:49:16.680Z,69.52
2023-03-26T17:52:03.853Z,69.78
2023-03-26T17:54:46.957Z,70.11
2023-03-26T17:57:30.637Z,70.16
2023-03-26T18:00:08.289Z,70.46
2023-03-26T18:02:56.418Z,70.71
2023-03-26T18:05:32.783Z,70.60
2023-03-26T18:08:26.926Z,70.78
2023-03-26T18:11:32.197Z,71.03
2023-03-26T18:14:32.312Z,71.25
2023-03-26T18:17:06.455Z,71.21
2023-03-26T18:20:07.083Z,70.97
2023-03-26T18:22:40.448Z,70.37
2023-03-26T18:25:34.425Z,70.53
2023-03-26T18:28:08.276Z,70.45
2023-03-26T18:30:50.600Z,70.30
2023-03-26T18:33:30.136Z,70.20
2023-03-26T18:36:05.012Z,69.77
2023-03-26T18:38:41.168Z,69.82
2023-03-26T18:41:46.784Z,69.55
2023-03-26T18:44:21.891Z,69.90
2023-03-26T18:46:59.165Z,70.43
2023-03-26T18:49:32.578Z,71.27
2023-03-26T18:52:06.091Z,71.33
2023-03-26T18:54:39.372Z,71.25
2023-03-26T18:57:24.466Z,71.14
2023-03-26T19:00:10.815Z,71.43
2023-03-26T19:02:44.950Z,71.75
2023-03-26T19:05:20.312Z,71.77
2023-03-26T19:07:54.432Z,71.54
2023-03-26T19:10:29.347Z,71.21
2023-03-26T19:13:04.706Z,71.27
2023-03-26T19:15:39.332Z,71.57
2023-03-26T19:18:18.670Z,71.60
2023-03-26T19:21:06.144Z,71.48
2023-03-26T19:23:45.874Z,71.34
2023-03-26T19:26:20.049Z,71.45
2023-03-26T19:28:56.988Z,71.49
2023-03-26T19:31:39.646Z,71.40
2023-03-26T19:34:16.157Z,71.43
2023-03-26T19:37:10.457Z,71.55
2023-03-26T19:39:50.097Z,71.48
2023-03-26T19:42:43.926Z,71.66
2023-03-26T19:45:26.254Z,71.44
2023-03-26T19:48:14.300Z,71.76
2023-03-26T19:51:07.151Z,71.66
2023-03-26T19:53:45.538Z,71.64
2023-03-26T19:56:21.242Z,71.69
2023-03-26T19:58:55.092Z,71.35
2023-03-26T20:01:30.360Z,71.29
2023-03-26T20:04:09.012Z,71.09
2023-03-26T20:06:44.345Z,71.23
2023-03-26T20:09:18.327Z,71.23
2023-03-26T20:11:53.251Z,71.40
2023-03-26T20:14:27.876Z,71.43
2023-03-26T20:17:01.854Z,71.69
2023-03-26T20:19:36.006Z,71.70
2023-03-26T20:22:14.270Z,71.75
2023-03-26T20:24:48.392Z,71.66
2023-03-26T20:27:22.993Z,71.71
2023-03-26T20:29:57.306Z,71.48
2023-03-26T20:32:31.854Z,71.37
2023-03-26T20:35:16.399Z,71.23
2023-03-26T20:37:50.639Z,71.29
2023-03-26T20:40:24.716Z,71.16
2023-03-26T20:42:58.359Z,71.15
2023-03-26T20:45:31.968Z,71.36
2023-03-26T20:48:05.754Z,71.63
2023-03-26T20:50:50.493Z,71.29
2023-03-26T20:53:26.710Z,71.42
2023-03-26T20:56:00.548Z,71.80
2023-03-26T20:58:34.336Z,71.81
2023-03-26T21:01:08.496Z,71.67
2023-03-26T21:03:42.945Z,71.61
2023-03-26T21:06:17.160Z,71.60
2023-03-26T21:08:50.974Z,71.57
2023-03-26T21:11:38.776Z,71.43
2023-03-26T21:14:25.412Z,71.48
2023-03-26T21:16:59.340Z,71.18
2023-03-26T21:19:33.720Z,71.03
2023-03-26T21:22:20.843Z,70.91
2023-03-26T21:25:09.740Z,71.11
2023-03-26T21:27:52.223Z,71.30
2023-03-26T21:30:26.447Z,71.34
2023-03-26T21:33:00.632Z,71.30
2023-03-26T21:35:35.371Z,71.67
2023-03-26T21:38:10.312Z,71.57
2023-03-26T21:40:52.979Z,71.34
2023-03-26T21:43:34.437Z,71.47
2023-03-26T21:46:08.629Z,71.40
2023-03-26T21:48:43.682Z,71.41
2023-03-26T21:51:19.791Z,71.26
2023-03-26T21:53:53.344Z,71.23
2023-03-26T21:56:50.245Z,71.28
2023-03-26T21:59:58.997Z,71.33
2023-03-26T22:02:42.230Z,71.39
2023-03-26T22:05:25.958Z,71.34
2023-03-26T22:08:09.122Z,71.53
2023-03-26T22:10:43.214Z,71.58
2023-03-26T22:13:17.131Z,71.81
2023-03-26T22:15:51.836Z,71.72
2023-03-26T22:18:26.480Z,71.49
2023-03-26T22:21:01.307Z,71.41
2023-03-26T22:23:36.864Z,71.23
2023-03-26T22:26:10.170Z,71.39
2023-03-26T22:28:43.854Z,71.01
2023-03-26T22:31:18.185Z,71.20
2023-03-26T22:33:51.693Z,71.04
2023-03-26T22:36:26.012Z,71.01
2023-03-26T22:38:59.768Z,71.17
2023-03-26T22:41:33.893Z,71.24
2023-03-26T22:44:19.025Z,71.34
2023-03-26T22:46:57.559Z,71.49
2023-03-26T22:49:31.912Z,71.65
2023-03-26T22:52:05.329Z,71.90
2023-03-26T22:54:39.678Z,71.76
2023-03-26T22:57:13.471Z,71.59
2023-03-26T22:59:47.032Z,71.53
2023-03-26T23:02:21.210Z,71.40
2023-03-26T23:04:54.892Z,71.34
2023-03-26T23:07:29.143Z,71.36
2023-03-26T23:10:02.628Z,71.29
2023-03-26T23:12:36.885Z,71.26
2023-03-26T23:15:11.226Z,71.42
2023-03-26T23:17:45.322Z,71.48
2023-03-26T23:20:30.621Z,71.56
2023-03-26T23:23:04.605Z,71.59
2023-03-26T23:25:38.211Z,71.58
2023-03-26T23:28:11.560Z,71.69
2023-03-26T23:30:52.809Z,71.90
2023-03-26T23:33:28.392Z,71.93
2023-03-26T23:36:07.390Z,71.98
2023-03-26T23:38:44.018Z,71.83
2023-03-26T23:41:22.054Z,71.52
2023-03-26T23:43:56.043Z,71.67
2023-03-26T23:46:36.961Z,71.60
2023-03-26T23:49:10.943Z,71.78
2023-03-26T23:51:44.146Z,71.59
2023-03-26T23:54:17.923Z,71.33
2023-03-26T23:56:52.127Z,71.48
2023-03-26T23:59:27.103Z,72.10
